Time,TemperatureF,DewpointF,PressureIn,WindDirection,WindDirectionDegrees,WindSpeedMPH,WindSpeedGustMPH,Humidity,HourlyPrecipIn,Conditions,Clouds,dailyrainin,SoftwareType,DateUTC
2013-01-29 08:55:00,71.2,26.9,25.79,North,0,0.0,0.0,19,0.00,,---,0.00,VWS V13.01,2013-01-29 14:55:00,
2013-01-29 08:56:00,71.2,26.9,25.79,North,0,0.0,0.0,19,0.00,,---,0.00,VWS V13.01,2013-01-29 14:56:00,
2013-01-29 09:01:00,71.6,27.2,25.79,North,0,0.0,0.0,19,0.00,,---,0.00,VWS V13.01,2013-01-29 15:01:00,
2013-01-29 09:06:00,71.6,27.2,25.79,North,0,0.0,0.0,19,0.00,,---,0.00,VWS V13.01,2013-01-29 15:06:00,
2013-01-29 09:11:00,72.1,27.6,25.79,North,0,0.0,0.0,19,0.00,,---,0.00,VWS V13.01,2013-01-29 15:11:00,
2013-01-29 09:16:00,72.5,27.9,25.79,North,0,0.0,0.0,19,0.00,,---,0.00,VWS V13.01,2013-01-29 15:16:00,
2013-01-29 09:21:00,72.9,28.2,25.79,North,0,0.0,0.0,19,0.00,,---,0.00,VWS V13.01,2013-01-29 15:21:00,
2013-01-29 09:26:00,73.0,28.4,25.79,North,0,0.0,0.0,19,0.00,,---,0.00,VWS V13.01,2013-01-29 15:26:00,
2013-01-29 09:31:00,72.7,28.1,25.79,North,0,0.0,0.0,19,0.00,,---,0.00,VWS V13.01,2013-01-29 15:31:00,
2013-01-29 09:36:00,72.0,27.5,25.82,North,0,0.0,0.0,19,0.00,,---,0.00,VWS V13.01,2013-01-29 15:36:00,
2013-01-29 09:41:00,71.6,27.2,25.82,North,0,0.0,0.0,19,0.00,,---,0.00,VWS V13.01,2013-01-29 15:41:00,
2013-01-29 09:46:00,71.4,27.0,25.82,North,0,0.0,0.0,19,0.00,,---,0.00,VWS V13.01,2013-01-29 15:46:00,
2013-01-29 09:51:00,71.8,27.3,25.82,North,0,0.0,0.0,19,0.00,,---,0.00,VWS V13.01,2013-01-29 15:51:00,
2013-01-29 09:56:00,71.6,27.2,25.82,North,0,0.0,0.0,19,0.00,,---,0.00,VWS V13.01,2013-01-29 15:56:00,
2013-01-29 10:01:00,72.0,27.5,25.82,North,0,0.0,0.0,19,0.00,,---,0.00,VWS V13.01,2013-01-29 16:01:00,
2013-01-29 10:06:00,72.1,27.6,25.82,North,0,0.0,0.0,19,0.00,,---,0.00,VWS V13.01,2013-01-29 16:06:00,
2013-01-29 10:11:00,72.3,27.8,25.82,North,0,0.0,0.0,19,0.00,,---,0.00,VWS V13.01,2013-01-29 16:11:00,
2013-01-29 10:16:00,72.1,27.6,25.82,North,0,0.0,0.0,19,0.00,,---,0.00,VWS V13.01,2013-01-29 16:16:00,
2013-01-29 10:21:00,72.3,27.8,25.82,North,0,0.0,0.0,19,0.00,,---,0.00,VWS V13.01,2013-01-29 16:21:00,
2013-01-29 10:26:00,72.5,27.9,25.82,North,0,0.0,0.0,19,0.00,,---,0.00,VWS V13.01,2013-01-29 16:26:00,
2013-01-29 10:31:00,72.1,27.6,25.82,North,0,0.0,0.0,19,0.00,,---,0.00,VWS V13.01,2013-01-29 16:31:00,
2013-01-29 10:36:00,72.3,27.8,25.82,North,0,0.0,0.0,19,0.00,,---,0.00,VWS V13.01,2013-01-29 16:36:00,
2013-01-29 10:41:00,72.3,27.8,25.82,North,0,0.0,0.0,19,0.00,,---,0.00,VWS V13.01,2013-01-29 16:41:00,
2013-01-29 10:46:00,72.3,27.8,25.82,North,0,0.0,0.0,19,0.00,,---,0.00,VWS V13.01,2013-01-29 16:46:00,
2013-01-29 10:51:00,72.9,28.2,25.82,North,0,0.0,0.0,19,0.00,,---,0.00,VWS V13.01,2013-01-29 16:51:00,
2013-01-29 10:56:00,72.9,28.2,25.82,North,0,0.0,0.0,19,0.00,,---,0.00,VWS V13.01,2013-01-29 16:56:00,
2013-01-29 11:01:00,72.7,28.1,25.82,North,0,0.0,0.0,19,0.00,,---,0.00,VWS V13.01,2013-01-29 17:01:00,
2013-01-29 11:06:00,72.7,28.1,25.82,North,0,0.0,0.0,19,0.00,,---,0.00,VWS V13.01,2013-01-29 17:06:00,
2013-01-29 11:11:00,72.9,28.2,25.82,North,0,0.0,0.0,19,0.00,,---,0.00,VWS V13.01,2013-01-29 17:11:00,
2013-01-29 11:16:00,72.9,28.2,25.82,North,0,0.0,0.0,19,0.00,,---,0.00,VWS V13.01,2013-01-29 17:16:00,
2013-01-29 11:21:00,72.9,28.2,25.82,North,0,0.0,0.0,19,0.00,,---,0.00,VWS V13.01,2013-01-29 17:21:00,
2013-01-29 11:26:00,72.9,28.2,25.82,North,0,0.0,0.0,19,0.00,,---,0.00,VWS V13.01,2013-01-29 17:26:00,
2013-01-29 11:31:00,72.9,28.2,25.82,North,0,0.0,0.0,19,0.00,,---,0.00,VWS V13.01,2013-01-29 17:31:00,
2013-01-29 11:36:00,72.9,28.2,25.82,North,0,0.0,0.0,19,0.00,,---,0.00,VWS V13.01,2013-01-29 17:36:00,
2013-01-29 11:41:00,72.9,28.2,25.82,North,0,0.0,0.0,19,0.00,,---,0.00,VWS V13.01,2013-01-29 17:41:00,
2013-01-29 11:46:00,73.0,28.4,25.82,North,0,0.0,0.0,19,0.00,,---,0.00,VWS V13.01,2013-01-29 17:46:00,
2013-01-29 11:51:00,72.9,28.2,25.82,North,0,0.0,0.0,19,0.00,,---,0.00,VWS V13.01,2013-01-29 17:51:00,
2013-01-29 12:01:00,73.2,28.5,25.82,North,0,0.0,0.0,19,0.00,,---,0.00,VWS V13.01,2013-01-29 18:01:00,
2013-01-29 12:06:00,73.4,27.4,25.82,North,0,0.0,0.0,18,0.00,,---,0.00,VWS V13.01,2013-01-29 18:06:00,
2013-01-29 12:11:00,73.9,27.8,25.82,North,0,0.0,0.0,18,0.00,,---,0.00,VWS V13.01,2013-01-29 18:11:00,
2013-01-29 12:16:00,73.9,27.8,25.82,North,0,0.0,0.0,18,0.00,,---,0.00,VWS V13.01,2013-01-29 18:16:00,
2013-01-29 12:21:00,73.9,27.8,25.82,North,0,0.0,0.0,18,0.00,,---,0.00,VWS V13.01,2013-01-29 18:21:00,
2013-01-29 12:26:00,73.9,27.8,25.82,North,0,0.0,0.0,18,0.00,,---,0.00,VWS V13.01,2013-01-29 18:26:00,
2013-01-29 12:31:00,73.6,27.5,25.82,North,0,0.0,0.0,18,0.00,,---,0.00,VWS V13.01,2013-01-29 18:31:00,
2013-01-29 12:36:00,73.0,28.4,25.82,North,0,0.0,0.0,19,0.00,,---,0.00,VWS V13.01,2013-01-29 18:36:00,
2013-01-29 12:41:00,72.3,27.8,25.82,North,0,0.0,0.0,19,0.00,,---,0.00,VWS V13.01,2013-01-29 18:41:00,
2013-01-29 12:46:00,72.3,27.8,25.82,North,0,0.0,0.0,19,0.00,,---,0.00,VWS V13.01,2013-01-29 18:46:00,
2013-01-29 12:51:00,70.5,26.3,25.79,North,0,0.0,0.0,19,0.00,,---,0.00,VWS V13.01,2013-01-29 18:51:00,
2013-01-29 12:56:00,70.2,26.0,25.79,North,0,0.0,0.0,19,0.00,,---,0.00,VWS V13.01,2013-01-29 18:56:00,
2013-01-29 13:01:00,70.9,30.2,25.79,North,0,0.0,0.0,22,0.00,,---,0.00,VWS V13.01,2013-01-29 19:01:00,
2013-01-29 13:06:00,70.9,30.2,25.79,North,0,0.0,0.0,22,0.00,,---,0.00,VWS V13.01,2013-01-29 19:06:00,
2013-01-29 13:11:00,70.9,30.2,25.79,North,0,0.0,0.0,22,0.00,,---,0.00,VWS V13.01,2013-01-29 19:11:00,
2013-01-29 13:16:00,71.2,26.9,25.79,North,0,0.0,0.0,19,0.00,,---,0.00,VWS V13.01,2013-01-29 19:16:00,
2013-01-29 13:21:00,70.9,26.6,25.79,North,0,0.0,0.0,19,0.00,,---,0.00,VWS V13.01,2013-01-29 19:21:00,
2013-01-29 13:26:00,71.2,26.9,25.79,North,0,0.0,0.0,19,0.00,,---,0.00,VWS V13.01,2013-01-29 19:26:00,
2013-01-29 13:31:00,71.6,27.2,25.79,North,0,0.0,0.0,19,0.00,,---,0.00,VWS V13.01,2013-01-29 19:31:00,
2013-01-29 13:36:00,71.6,27.2,25.79,North,0,0.0,0.0,19,0.00,,---,0.00,VWS V13.01,2013-01-29 19:36:00,
2013-01-29 18:21:00,66.7,28.8,25.70,North,0,0.0,0.0,24,0.00,,---,0.00,VWS V13.01,2013-01-30 00:21:00,
2013-01-29 18:27:00,67.1,29.1,25.70,North,0,0.0,0.0,24,0.00,,---,0.00,VWS V13.01,2013-01-30 00:27:00,
2013-01-29 18:32:00,67.1,29.1,25.70,North,0,0.0,0.0,24,0.00,,---,0.00,VWS V13.01,2013-01-30 00:32:00,
2013-01-29 18:37:00,67.1,28.1,25.73,North,0,0.0,0.0,23,0.00,,---,0.00,VWS V13.01,2013-01-30 00:37:00,
2013-01-29 18:42:00,67.3,28.2,25.73,North,0,0.0,0.0,23,0.00,,---,0.00,VWS V13.01,2013-01-30 00:42:00,
2013-01-29 18:47:00,67.3,28.2,25.73,North,0,0.0,0.0,23,0.00,,---,0.00,VWS V13.01,2013-01-30 00:47:00,
2013-01-29 18:52:00,67.1,28.1,25.73,North,0,0.0,0.0,23,0.00,,---,0.00,VWS V13.01,2013-01-30 00:52:00,
2013-01-29 18:57:00,67.1,28.1,25.73,North,0,0.0,0.0,23,0.00,,---,0.00,VWS V13.01,2013-01-30 00:57:00,
2013-01-29 19:02:00,66.9,27.9,25.73,North,0,0.0,0.0,23,0.00,,---,0.00,VWS V13.01,2013-01-30 01:02:00,
2013-01-29 19:07:00,66.9,27.9,25.73,North,0,0.0,0.0,23,0.00,,---,0.00,VWS V13.01,2013-01-30 01:07:00,
2013-01-29 19:12:00,66.9,27.9,25.73,North,0,0.0,0.0,23,0.00,,---,0.00,VWS V13.01,2013-01-30 01:12:00,
2013-01-29 19:17:00,66.9,27.9,25.73,North,0,0.0,0.0,23,0.00,,---,0.00,VWS V13.01,2013-01-30 01:17:00,
2013-01-29 19:22:00,66.9,27.9,25.73,North,0,0.0,0.0,23,0.00,,---,0.00,VWS V13.01,2013-01-30 01:22:00,
2013-01-29 19:27:00,66.9,27.9,25.73,North,0,0.0,0.0,23,0.00,,---,0.00,VWS V13.01,2013-01-30 01:27:00,
2013-01-29 19:32:00,66.9,27.9,25.73,North,0,0.0,0.0,23,0.00,,---,0.00,VWS V13.01,2013-01-30 01:32:00,
2013-01-29 19:37:00,66.7,27.8,25.73,North,0,0.0,0.0,23,0.00,,---,0.00,VWS V13.01,2013-01-30 01:37:00,
2013-01-29 19:42:00,66.7,27.8,25.73,North,0,0.0,0.0,23,0.00,,---,0.00,VWS V13.01,2013-01-30 01:42:00,
2013-01-29 19:47:00,66.7,27.8,25.73,North,0,0.0,0.0,23,0.00,,---,0.00,VWS V13.01,2013-01-30 01:47:00,
2013-01-29 19:52:00,66.7,27.8,25.73,North,0,0.0,0.0,23,0.00,,---,0.00,VWS V13.01,2013-01-30 01:52:00,
2013-01-29 19:57:00,66.7,27.8,25.73,North,0,0.0,0.0,23,0.00,,---,0.00,VWS V13.01,2013-01-30 01:57:00,
2013-01-29 20:02:00,66.7,27.8,25.73,North,0,0.0,0.0,23,0.00,,---,0.00,VWS V13.01,2013-01-30 02:02:00,
2013-01-29 20:07:00,66.7,27.8,25.73,North,0,0.0,0.0,23,0.00,,---,0.00,VWS V13.01,2013-01-30 02:07:00,
2013-01-29 20:12:00,66.7,26.7,25.73,North,0,0.0,0.0,22,0.00,,---,0.00,VWS V13.01,2013-01-30 02:12:00,
2013-01-29 20:17:00,66.9,26.9,25.73,North,0,0.0,0.0,22,0.00,,---,0.00,VWS V13.01,2013-01-30 02:17:00,
2013-01-29 20:22:00,66.7,26.7,25.73,North,0,0.0,0.0,22,0.00,,---,0.00,VWS V13.01,2013-01-30 02:22:00,
2013-01-29 20:27:00,66.6,27.6,25.73,North,0,0.0,0.0,23,0.00,,---,0.00,VWS V13.01,2013-01-30 02:27:00,
2013-01-29 20:32:00,66.6,27.6,25.73,North,0,0.0,0.0,23,0.00,,---,0.00,VWS V13.01,2013-01-30 02:32:00,
2013-01-29 20:37:00,66.4,27.5,25.73,North,0,0.0,0.0,23,0.00,,---,0.00,VWS V13.01,2013-01-30 02:37:00,
2013-01-29 20:42:00,66.4,27.5,25.73,North,0,0.0,0.0,23,0.00,,---,0.00,VWS V13.01,2013-01-30 02:42:00,
2013-01-29 20:47:00,66.4,27.5,25.73,North,0,0.0,0.0,23,0.00,,---,0.00,VWS V13.01,2013-01-30 02:47:00,
2013-01-29 20:52:00,66.6,26.6,25.73,North,0,0.0,0.0,22,0.00,,---,0.00,VWS V13.01,2013-01-30 02:52:00,
2013-01-29 20:57:00,66.9,26.9,25.73,North,0,0.0,0.0,22,0.00,,---,0.00,VWS V13.01,2013-01-30 02:57:00,
2013-01-29 21:02:00,67.1,27.0,25.73,North,0,0.0,0.0,22,0.00,,---,0.00,VWS V13.01,2013-01-30 03:02:00,
2013-01-29 21:07:00,67.5,25.0,25.73,North,0,0.0,0.0,20,0.00,,---,0.00,VWS V13.01,2013-01-30 03:07:00,
2013-01-29 21:12:00,67.5,25.0,25.73,North,0,0.0,0.0,20,0.00,,---,0.00,VWS V13.01,2013-01-30 03:12:00,
2013-01-29 21:17:00,67.5,25.0,25.73,North,0,0.0,0.0,20,0.00,,---,0.00,VWS V13.01,2013-01-30 03:17:00,
2013-01-29 21:22:00,67.3,24.9,25.73,North,0,0.0,0.0,20,0.00,,---,0.00,VWS V13.01,2013-01-30 03:22:00,
2013-01-29 21:27:00,67.3,24.9,25.73,North,0,0.0,0.0,20,0.00,,---,0.00,VWS V13.01,2013-01-30 03:27:00,
2013-01-29 21:32:00,66.9,24.6,25.73,North,0,0.0,0.0,20,0.00,,---,0.00,VWS V13.01,2013-01-30 03:32:00,
2013-01-29 21:37:00,66.7,26.7,25.73,North,0,0.0,0.0,22,0.00,,---,0.00,VWS V13.01,2013-01-30 03:37:00,
2013-01-29 21:42:00,66.6,26.6,25.73,North,0,0.0,0.0,22,0.00,,---,0.00,VWS V13.01,2013-01-30 03:42:00,
2013-01-29 21:47:00,66.4,26.4,25.73,North,0,0.0,0.0,22,0.00,,---,0.00,VWS V13.01,2013-01-30 03:47:00,
2013-01-29 21:52:00,66.2,26.3,25.73,North,0,0.0,0.0,22,0.00,,---,0.00,VWS V13.01,2013-01-30 03:52:00,
2013-01-29 21:57:00,66.0,27.2,25.73,North,0,0.0,0.0,23,0.00,,---,0.00,VWS V13.01,2013-01-30 03:57:00,
2013-01-29 22:02:00,66.0,27.2,25.73,North,0,0.0,0.0,23,0.00,,---,0.00,VWS V13.01,2013-01-30 04:02:00,
2013-01-29 22:07:00,65.7,26.9,25.73,North,0,0.0,0.0,23,0.00,,---,0.00,VWS V13.01,2013-01-30 04:07:00,
2013-01-29 22:12:00,65.5,26.7,25.73,North,0,0.0,0.0,23,0.00,,---,0.00,VWS V13.01,2013-01-30 04:12:00,
2013-01-29 22:17:00,65.7,26.9,25.73,North,0,0.0,0.0,23,0.00,,---,0.00,VWS V13.01,2013-01-30 04:17:00,
2013-01-29 22:22:00,65.8,27.0,25.73,North,0,0.0,0.0,23,0.00,,---,0.00,VWS V13.01,2013-01-30 04:22:00,
2013-01-29 22:27:00,65.8,27.0,25.73,North,0,0.0,0.0,23,0.00,,---,0.00,VWS V13.01,2013-01-30 04:27:00,
2013-01-29 22:32:00,65.8,27.0,25.73,North,0,0.0,0.0,23,0.00,,---,0.00,VWS V13.01,2013-01-30 04:32:00,
2013-01-29 22:37:00,65.8,27.0,25.73,North,0,0.0,0.0,23,0.00,,---,0.00,VWS V13.01,2013-01-30 04:37:00,
2013-01-29 22:42:00,65.8,27.0,25.73,North,0,0.0,0.0,23,0.00,,---,0.00,VWS V13.01,2013-01-30 04:42:00,
2013-01-29 22:47:00,65.8,27.0,25.73,North,0,0.0,0.0,23,0.00,,---,0.00,VWS V13.01,2013-01-30 04:47:00,
2013-01-29 22:52:00,65.8,27.0,25.73,North,0,0.0,0.0,23,0.00,,---,0.00,VWS V13.01,2013-01-30 04:52:00,
2013-01-29 22:57:00,66.2,27.3,25.73,North,0,0.0,0.0,23,0.00,,---,0.00,VWS V13.01,2013-01-30 04:57:00,
2013-01-29 23:00:00,66.2,27.3,25.73,North,0,0.0,0.0,23,0.00,,---,0.00,VWS V13.01,2013-01-30 05:00:00,
2013-01-29 23:03:00,66.4,27.5,25.73,North,0,0.0,0.0,23,0.00,,---,0.00,VWS V13.01,2013-01-30 05:03:00,
2013-01-29 23:04:00,66.4,27.5,25.73,North,0,0.0,0.0,23,0.00,,---,0.00,VWS V13.01,2013-01-30 05:04:00,
2013-01-29 23:09:00,66.2,27.3,25.73,North,0,0.0,0.0,23,0.00,,---,0.00,VWS V13.01,2013-01-30 05:09:00,
2013-01-29 23:14:00,66.2,27.3,25.73,North,0,0.0,0.0,23,0.00,,---,0.00,VWS V13.01,2013-01-30 05:14:00,
2013-01-29 23:19:00,66.0,27.2,25.73,North,0,0.0,0.0,23,0.00,,---,0.00,VWS V13.01,2013-01-30 05:19:00,
2013-01-29 23:24:00,66.0,27.2,25.73,North,0,0.0,0.0,23,0.00,,---,0.00,VWS V13.01,2013-01-30 05:24:00,
2013-01-29 23:29:00,66.0,27.2,25.73,North,0,0.0,0.0,23,0.00,,---,0.00,VWS V13.01,2013-01-30 05:29:00,
2013-01-29 23:34:00,65.8,27.0,25.73,North,0,0.0,0.0,23,0.00,,---,0.00,VWS V13.01,2013-01-30 05:34:00,
2013-01-29 23:39:00,65.8,27.0,25.73,North,0,0.0,0.0,23,0.00,,---,0.00,VWS V13.01,2013-01-30 05:39:00,
2013-01-29 23:44:00,65.8,27.0,25.73,North,0,0.0,0.0,23,0.00,,---,0.00,VWS V13.01,2013-01-30 05:44:00,
2013-01-29 23:49:00,65.8,27.0,25.73,North,0,0.0,0.0,23,0.00,,---,0.00,VWS V13.01,2013-01-30 05:49:00,
2013-01-29 23:54:00,65.8,27.0,25.73,North,0,0.0,0.0,23,0.00,,---,0.00,VWS V13.01,2013-01-30 05:54:00,
2013-01-29 23:59:00,65.7,26.9,25.73,North,0,0.0,0.0,23,0.00,,---,0.00,VWS V13.01,2013-01-30 05:59:00,